Time;durP1;ratioP1;P1;durP2;ratioP2;P2;SDS_P1;SDS_P2;PMS_P1;PMS_P2;Temp;Humidity;BMP_temperature;BMP_pressure;BME280_temperature;BME280_humidity;BME280_pressure;Samples;Min_cycle;Max_cycle;Signal;HPM_P1;HPM_P2
2022/05/19 00:01:48;;;;;;;;;;;14.80;99.90;;;;;;5054556;28;20097;-86
2022/05/19 00:04:14;;;;;;;29.63;19.92;;;14.80;99.90;;;;;;5069876;28;19920;-87
2022/05/19 00:06:39;;;;;;;36.35;22.05;;;14.90;99.90;;;;;;5053415;28;20510;-86
2022/05/19 00:09:05;;;;;;;30.65;21.83;;;14.90;99.90;;;;;;5053392;28;20142;-86
2022/05/19 00:11:32;;;;;;;33.20;20.75;;;14.90;99.90;;;;;;5057019;28;20095;-86
2022/05/19 00:13:59;;;;;;;37.53;23.77;;;14.90;99.90;;;;;;5067727;28;20036;-86
2022/05/19 00:16:26;;;;;;;43.78;24.52;;;15.00;99.90;;;;;;5073180;28;20047;-86
2022/05/19 00:18:51;;;;;;;39.38;24.08;;;15.00;99.90;;;;;;5073809;28;20458;-86
2022/05/19 00:21:17;;;;;;;34.38;22.35;;;15.00;99.90;;;;;;5072297;28;20043;-86
2022/05/19 00:23:43;;;;;;;33.58;20.98;;;15.00;99.90;;;;;;5074010;28;20479;-86
2022/05/19 00:26:09;;;;;;;34.08;23.02;;;15.00;99.90;;;;;;5073133;28;20032;-88
2022/05/19 00:28:34;;;;;;;31.35;21.52;;;15.00;99.90;;;;;;5072956;28;20139;-86
2022/05/19 00:31:01;;;;;;;30.33;20.58;;;15.00;99.90;;;;;;5074195;28;20043;-86
2022/05/19 00:33:27;;;;;;;28.35;19.83;;;15.00;99.90;;;;;;5072218;28;20044;-86
2022/05/19 00:35:53;;;;;;;33.35;23.20;;;15.00;99.90;;;;;;5073460;28;20051;-85
2022/05/19 00:38:18;;;;;;;31.73;22.75;;;15.00;99.90;;;;;;5089608;28;20224;-86
2022/05/19 00:40:49;;;;;;;27.65;19.98;;;14.90;99.90;;;;;;5072631;28;20387;-86
2022/05/19 00:43:15;;;;;;;34.58;22.52;;;14.80;99.90;;;;;;5105569;28;20130;-85
2022/05/19 00:45:51;;;;;;;30.55;20.90;;;14.80;99.90;;;;;;5106737;28;20570;-86
2022/05/19 00:48:24;;;;;;;32.80;22.27;;;14.70;99.90;;;;;;5071330;28;20050;-85
2022/05/19 00:50:58;;;;;;;32.25;22.90;;;14.70;99.90;;;;;;5073270;28;20058;-85
2022/05/19 00:53:34;;;;;;;41.42;24.80;;;14.60;99.90;;;;;;5072621;28;20051;-85
2022/05/19 00:56:04;;;;;;;34.83;22.92;;;14.60;99.90;;;;;;5078810;28;20058;-85
2022/05/19 00:58:38;;;;;;;31.13;20.95;;;14.50;99.90;;;;;;5078968;28;20048;-84
2022/05/19 01:01:03;;;;;;;34.45;22.13;;;14.50;99.90;;;;;;5095914;28;20531;-85
2022/05/19 01:03:35;;;;;;;29.02;21.90;;;14.40;99.90;;;;;;5080922;28;20148;-85
2022/05/19 01:06:07;;;;;;;31.65;24.15;;;14.40;99.90;;;;;;5059256;28;20040;-85
2022/05/19 01:08:38;;;;;;;37.25;24.63;;;14.40;99.90;;;;;;5058278;28;20105;-85
2022/05/19 01:11:06;;;;;;;37.30;28.35;;;14.40;99.90;;;;;;5059258;28;20067;-85
2022/05/19 01:13:34;;;;;;;40.13;27.98;;;14.40;99.90;;;;;;5058220;28;20360;-85
2022/05/19 01:16:00;;;;;;;35.67;25.45;;;14.40;99.90;;;;;;5058995;28;20414;-85
2022/05/19 01:18:28;;;;;;;38.65;27.17;;;14.40;99.90;;;;;;5058922;28;20066;-85
2022/05/19 01:20:55;;;;;;;44.10;29.40;;;14.40;99.90;;;;;;5059583;28;20044;-85
2022/05/19 01:23:40;;;;;;;48.92;28.40;;;14.40;99.90;;;;;;5074260;28;20048;-85
2022/05/19 01:26:27;;;;;;;42.67;29.13;;;14.40;99.90;;;;;;5058817;28;20044;-85
2022/05/19 01:28:54;;;;;;;39.15;27.00;;;14.30;99.90;;;;;;5058792;28;20151;-84
2022/05/19 01:31:38;;;;;;;45.80;30.92;;;14.30;99.90;;;;;;5075162;28;20085;-85
2022/05/19 01:34:07;;;;;;;41.58;28.70;;;14.40;99.90;;;;;;5075146;28;20044;-85
2022/05/19 01:36:34;;;;;;;41.25;28.55;;;14.40;99.90;;;;;;5058449;28;20032;-85
2022/05/19 01:39:03;;;;;;;41.85;29.58;;;14.40;99.90;;;;;;5076103;28;20056;-85
2022/05/19 01:41:43;;;;;;;44.58;32.17;;;14.40;99.90;;;;;;5059189;28;20040;-85
2022/05/19 01:44:22;;;;;;;49.22;32.13;;;14.40;99.90;;;;;;5057199;28;20400;-86
2022/05/19 01:46:57;;;;;;;50.95;37.22;;;14.30;99.90;;;;;;5059232;28;20051;-86
2022/05/19 01:49:34;;;;;;;55.53;40.67;;;14.40;99.90;;;;;;5058729;28;20044;-85
2022/05/19 01:52:22;;;;;;;59.40;42.13;;;14.40;99.90;;;;;;5075453;28;20065;-86
2022/05/19 01:54:56;;;;;;;55.97;37.10;;;14.50;99.90;;;;;;5076096;28;20506;-86
2022/05/19 01:57:30;;;;;;;52.30;38.22;;;14.40;99.90;;;;;;5059013;28;20332;-85
2022/05/19 02:00:08;;;;;;;52.05;39.97;;;14.50;99.90;;;;;;5057353;28;20083;-85
2022/05/19 02:02:53;;;;;;;56.20;41.00;;;14.50;99.90;;;;;;5075373;28;20468;-86
2022/05/19 02:05:26;;;;;;;59.67;39.33;;;14.50;99.90;;;;;;5073793;28;20138;-86
2022/05/19 02:07:55;;;;;;;60.05;42.47;;;14.60;99.90;;;;;;5055774;28;20052;-86
2022/05/19 02:10:26;;;;;;;51.55;38.28;;;14.60;99.90;;;;;;5072718;28;20089;-86
2022/05/19 02:12:53;;;;;;;52.78;38.08;;;14.60;99.90;;;;;;5071048;28;20047;-87
2022/05/19 02:15:22;;;;;;;54.20;40.28;;;14.60;99.90;;;;;;5055733;28;20090;-86
2022/05/19 02:17:50;;;;;;;55.10;42.25;;;14.70;99.90;;;;;;5055953;28;20036;-86
2022/05/19 02:20:18;;;;;;;64.75;45.25;;;14.70;99.90;;;;;;5071373;28;20582;-86
2022/05/19 02:22:45;;;;;;;64.82;41.88;;;14.70;99.90;;;;;;5056036;28;20065;-86
2022/05/19 02:25:28;;;;;;;62.55;44.42;;;14.70;99.90;;;;;;5055250;28;20043;-86
2022/05/19 02:28:02;;;;;;;68.18;45.13;;;14.70;99.90;;;;;;5054450;28;20057;-87
2022/05/19 02:30:31;;;;;;;63.92;44.67;;;14.70;99.90;;;;;;5055677;28;20101;-86
2022/05/19 02:32:57;;;;;;;64.68;44.30;;;14.80;99.90;;;;;;5054647;28;20044;-86
2022/05/19 02:35:24;;;;;;;76.82;49.47;;;14.80;99.90;;;;;;5071622;28;20082;-86
2022/05/19 02:37:51;;;;;;;63.53;45.53;;;14.80;99.90;;;;;;5055536;28;20036;-86
2022/05/19 02:40:19;;;;;;;66.82;46.95;;;14.80;99.90;;;;;;5054111;28;20086;-86
2022/05/19 02:42:45;;;;;;;65.15;45.88;;;14.80;99.90;;;;;;5054028;28;20048;-86
2022/05/19 02:45:13;;;;;;;70.25;47.22;;;14.80;99.90;;;;;;5054960;28;20047;-86
2022/05/19 02:47:39;;;;;;;55.92;44.20;;;14.80;99.90;;;;;;5054709;28;20474;-86
2022/05/19 02:50:06;;;;;;;71.43;49.70;;;14.80;99.90;;;;;;5071833;28;20479;-86
2022/05/19 02:52:32;;;;;;;61.03;42.92;;;14.70;99.90;;;;;;5055206;28;20174;-86
2022/05/19 02:54:58;;;;;;;60.80;43.63;;;14.70;99.90;;;;;;5070986;28;20459;-86
2022/05/19 02:57:23;;;;;;;61.80;44.88;;;14.70;99.90;;;;;;5054803;28;20048;-86
2022/05/19 02:59:49;;;;;;;53.35;41.03;;;14.70;99.90;;;;;;5053968;28;20048;-86
2022/05/19 03:02:15;;;;;;;59.20;45.25;;;14.70;99.90;;;;;;5053782;28;20063;-86
2022/05/19 03:04:40;;;;;;;63.95;42.70;;;14.70;99.90;;;;;;5071150;28;20160;-86
2022/05/19 03:07:06;;;;;;;56.20;41.28;;;14.70;99.90;;;;;;5071404;28;20497;-86
2022/05/19 03:09:33;;;;;;;62.80;46.17;;;14.80;99.90;;;;;;5070821;28;20078;-86
2022/05/19 03:11:58;;;;;;;63.38;45.75;;;14.80;99.90;;;;;;5054454;28;20115;-86
2022/05/19 03:14:24;;;;;;;69.20;44.95;;;14.90;99.90;;;;;;5070255;28;20134;-86
2022/05/19 03:16:50;;;;;;;63.30;43.30;;;14.90;99.90;;;;;;5053629;28;20395;-86
2022/05/19 03:19:16;;;;;;;67.13;43.55;;;14.90;99.90;;;;;;5069881;28;20039;-86
2022/05/19 03:21:42;;;;;;;68.30;44.97;;;15.00;99.90;;;;;;5055173;28;20479;-85
2022/05/19 03:24:09;;;;;;;66.95;44.95;;;15.00;99.90;;;;;;5052467;28;20046;-86
2022/05/19 03:26:34;;;;;;;67.50;43.78;;;15.00;99.90;;;;;;5071566;28;20471;-86
2022/05/19 03:29:01;;;;;;;66.95;46.22;;;15.10;99.90;;;;;;5069932;28;20048;-87
2022/05/19 03:31:26;;;;;;;64.93;44.95;;;15.10;99.90;;;;;;5054152;28;20071;-85
2022/05/19 03:33:52;;;;;;;65.65;44.13;;;15.10;99.90;;;;;;5071293;28;20447;-86
2022/05/19 03:36:18;;;;;;;65.50;45.88;;;15.20;99.90;;;;;;5052965;28;20454;-86
2022/05/19 03:38:44;;;;;;;70.88;46.58;;;15.20;99.90;;;;;;5054141;28;20087;-86
2022/05/19 03:41:10;;;;;;;63.97;46.42;;;15.30;99.90;;;;;;5070105;28;20132;-85
2022/05/19 03:43:35;;;;;;;77.15;50.75;;;15.30;99.90;;;;;;5052865;28;20052;-86
2022/05/19 03:46:02;;;;;;;76.78;52.25;;;15.30;99.90;;;;;;5053987;28;20071;-86
2022/05/19 03:48:34;;;;;;;89.50;54.60;;;15.30;99.90;;;;;;5053631;28;20055;-86
2022/05/19 03:51:01;;;;;;;78.75;54.45;;;15.30;99.90;;;;;;5053687;28;20048;-86
2022/05/19 03:53:26;;;;;;;75.85;53.13;;;15.30;99.90;;;;;;5070283;28;20059;-85
2022/05/19 03:55:54;;;;;;;88.10;57.22;;;15.30;99.90;;;;;;5054031;28;20380;-86
2022/05/19 03:58:20;;;;;;;87.22;57.97;;;15.40;99.90;;;;;;5051382;28;20432;-86
2022/05/19 04:00:46;;;;;;;88.18;55.58;;;15.40;99.90;;;;;;5053914;28;20048;-86
2022/05/19 04:03:12;;;;;;;77.97;55.20;;;15.40;99.90;;;;;;5053222;28;20081;-86
2022/05/19 04:05:38;;;;;;;92.53;58.83;;;15.40;99.90;;;;;;5053457;28;20040;-86
2022/05/19 04:08:04;;;;;;;86.75;58.38;;;15.50;99.90;;;;;;5053158;28;20136;-86
2022/05/19 04:10:30;;;;;;;88.70;57.30;;;15.50;99.90;;;;;;5053468;28;20048;-87
2022/05/19 04:12:56;;;;;;;88.05;56.40;;;15.50;99.90;;;;;;5062788;28;20077;-87
2022/05/19 04:15:22;;;;;;;83.47;57.25;;;15.60;99.90;;;;;;5053029;28;20446;-86
2022/05/19 04:17:48;;;;;;;87.00;54.63;;;15.60;99.90;;;;;;5055439;28;20047;-85
2022/05/19 04:20:14;;;;;;;79.75;54.85;;;15.60;99.90;;;;;;5060936;28;20039;-86
2022/05/19 04:22:39;;;;;;;84.72;56.38;;;15.60;99.90;;;;;;5089682;28;20116;-86
2022/05/19 04:25:06;;;;;;;87.93;57.83;;;15.70;99.90;;;;;;5072442;28;20071;-86
2022/05/19 04:27:33;;;;;;;80.13;54.35;;;15.70;99.90;;;;;;5072765;28;20122;-86
2022/05/19 04:30:00;;;;;;;79.45;56.70;;;15.70;99.90;;;;;;5089589;28;20047;-86
2022/05/19 04:32:26;;;;;;;77.57;53.83;;;15.70;99.90;;;;;;5072289;28;20153;-86
2022/05/19 04:34:52;;;;;;;89.13;56.17;;;15.70;99.90;;;;;;5073615;28;20186;-85
2022/05/19 04:37:17;;;;;;;80.18;52.50;;;15.70;99.90;;;;;;5097552;27;20412;-86
2022/05/19 04:39:43;;;;;;;72.10;53.33;;;15.80;99.90;;;;;;5109454;27;20047;-85
2022/05/19 04:42:11;;;;;;;72.70;52.60;;;15.80;99.90;;;;;;5094568;27;20084;-85
2022/05/19 04:44:37;;;;;;;76.65;51.22;;;15.90;99.90;;;;;;5092631;27;20066;-86
2022/05/19 04:47:04;;;;;;;75.97;53.92;;;15.90;99.90;;;;;;5092274;28;20506;-85
2022/05/19 04:49:30;;;;;;;82.43;52.85;;;15.90;99.90;;;;;;5110379;27;20094;-86
2022/05/19 04:51:55;;;;;;;71.40;50.80;;;16.00;99.90;;;;;;5094800;28;20183;-85
2022/05/19 04:54:21;;;;;;;71.47;50.92;;;16.10;99.90;;;;;;5093035;28;20039;-85
2022/05/19 04:56:47;;;;;;;75.10;53.92;;;16.20;99.90;;;;;;5093273;28;20039;-86
2022/05/19 04:59:14;;;;;;;68.25;48.85;;;16.30;99.90;;;;;;5108945;28;20390;-86
2022/05/19 05:01:41;;;;;;;73.82;49.75;;;16.40;99.90;;;;;;5084003;28;20406;-87
2022/05/19 05:04:07;;;;;;;69.78;48.97;;;16.50;99.90;;;;;;5072910;28;20044;-85
2022/05/19 05:06:32;;;;;;;68.40;48.30;;;16.50;99.90;;;;;;5073308;28;20046;-85
2022/05/19 05:08:58;;;;;;;61.38;46.58;;;16.60;99.90;;;;;;5071536;28;20502;-84
2022/05/19 05:11:24;;;;;;;74.43;49.05;;;16.70;99.90;;;;;;5069681;28;20052;-85
2022/05/19 05:13:50;;;;;;;68.20;46.78;;;16.80;99.90;;;;;;5070816;28;20047;-85
2022/05/19 05:16:15;;;;;;;68.45;47.20;;;16.90;99.90;;;;;;5086970;28;20048;-84
2022/05/19 05:18:41;;;;;;;66.60;47.50;;;17.00;99.90;;;;;;5071384;28;20050;-84
2022/05/19 05:21:07;;;;;;;64.43;46.85;;;17.00;99.90;;;;;;5087442;28;20134;-85
2022/05/19 05:23:33;;;;;;;59.05;44.05;;;17.10;99.90;;;;;;5070447;28;20043;-85
2022/05/19 05:26:01;;;;;;;61.10;41.72;;;17.20;99.90;;;;;;5071377;28;20418;-84
2022/05/19 05:28:26;;;;;;;54.63;42.30;;;17.40;99.90;;;;;;5071376;28;20044;-85
2022/05/19 05:30:52;;;;;;;57.67;43.22;;;17.50;99.90;;;;;;5058927;28;20380;-85
2022/05/19 05:33:18;;;;;;;57.47;44.55;;;17.50;99.90;;;;;;5070543;28;20058;-85
2022/05/19 05:35:43;;;;;;;62.72;42.97;;;17.70;99.90;;;;;;5072592;28;20131;-85
2022/05/19 05:38:09;;;;;;;53.45;41.38;;;17.70;99.90;;;;;;5061070;28;20043;-85
2022/05/19 05:40:36;;;;;;;57.70;44.67;;;17.90;99.90;;;;;;5064372;28;20449;-85
2022/05/19 05:43:08;;;;;;;60.80;43.03;;;17.90;99.90;;;;;;5091027;28;20047;-85
2022/05/19 05:45:34;;;;;;;56.97;42.83;;;18.00;99.90;;;;;;5093228;28;20505;-85
2022/05/19 05:47:59;;;;;;;58.58;41.67;;;18.10;99.90;;;;;;5070849;28;20152;-85
2022/05/19 05:50:26;;;;;;;59.65;40.28;;;18.20;99.90;;;;;;5063556;28;20447;-84
2022/05/19 05:52:51;;;;;;;53.35;37.35;;;18.30;99.90;;;;;;5081600;28;20059;-85
2022/05/19 05:55:17;;;;;;;48.00;34.30;;;18.40;99.90;;;;;;5065339;28;20043;-84
2022/05/19 05:57:43;;;;;;;47.70;32.78;;;18.60;99.90;;;;;;5080022;28;20041;-84
2022/05/19 06:00:10;;;;;;;42.63;32.50;;;18.90;99.90;;;;;;5064374;28;20047;-84
2022/05/19 06:02:36;;;;;;;42.40;29.98;;;19.10;99.90;;;;;;5081429;28;20445;-83
2022/05/19 06:05:02;;;;;;;40.28;28.00;;;19.10;99.90;;;;;;5081285;28;20047;-83
2022/05/19 06:07:29;;;;;;;41.85;28.63;;;19.30;99.90;;;;;;5078888;28;20467;-83
2022/05/19 06:09:56;;;;;;;34.20;26.08;;;19.40;99.90;;;;;;5056278;28;20047;-81
2022/05/19 06:12:23;;;;;;;38.17;25.95;;;19.50;99.90;;;;;;5089199;27;20036;-81
2022/05/19 06:14:49;;;;;;;32.95;24.50;;;19.60;99.90;;;;;;5106328;27;20035;-82
2022/05/19 06:17:16;;;;;;;34.15;24.50;;;19.70;99.90;;;;;;5073278;28;20122;-83
2022/05/19 06:19:42;;;;;;;32.80;25.30;;;19.70;99.90;;;;;;5093348;27;20027;-82
2022/05/19 06:22:07;;;;;;;33.72;25.83;;;19.80;99.90;;;;;;5087380;28;20500;-82
2022/05/19 06:24:33;;;;;;;32.53;23.88;;;19.80;99.90;;;;;;5082522;27;20044;-82
2022/05/19 06:26:59;;;;;;;28.02;22.48;;;19.90;99.90;;;;;;5073156;28;20050;-82
2022/05/19 06:29:24;;;;;;;32.42;22.40;;;20.00;99.90;;;;;;5065358;27;20051;-82
2022/05/19 06:31:50;;;;;;;28.77;21.42;;;20.10;99.90;;;;;;5091792;27;20036;-82
2022/05/19 06:34:16;;;;;;;26.75;19.95;;;20.10;99.90;;;;;;5083655;28;20528;-82
2022/05/19 06:36:42;;;;;;;34.92;20.88;;;20.20;99.90;;;;;;5078588;27;20074;-81
2022/05/19 06:39:08;;;;;;;25.08;19.02;;;20.30;99.90;;;;;;5103167;27;20062;-81
2022/05/19 06:44:18;;;;;;;26.90;19.52;;;20.50;99.90;;;;;;5101056;27;20054;-82
2022/05/19 06:46:46;;;;;;;30.10;19.48;;;20.50;99.90;;;;;;5089655;27;20048;-82
2022/05/19 06:49:12;;;;;;;28.23;19.27;;;20.40;99.90;;;;;;5080260;28;20113;-82
2022/05/19 06:51:38;;;;;;;27.88;20.40;;;20.30;99.90;;;;;;5092084;28;20449;-82
2022/05/19 06:54:04;;;;;;;27.38;19.70;;;20.20;99.90;;;;;;5085145;27;20047;-82
2022/05/19 06:56:30;;;;;;;29.20;20.85;;;20.00;99.90;;;;;;5080376;28;20043;-82
2022/05/19 06:58:56;;;;;;;29.00;20.65;;;19.90;99.90;;;;;;5076044;28;20497;-82
2022/05/19 07:01:22;;;;;;;27.40;19.40;;;19.80;99.90;;;;;;5074012;27;20538;-82
2022/05/19 07:03:49;;;;;;;32.17;19.98;;;19.60;99.90;;;;;;5081296;27;20500;-83
2022/05/19 07:06:15;;;;;;;31.98;17.95;;;19.50;99.90;;;;;;5094480;27;20100;-81
2022/05/19 07:08:41;;;;;;;23.98;18.20;;;19.40;99.90;;;;;;5109592;27;20043;-83
2022/05/19 07:11:24;;;;;;;28.48;17.60;;;19.30;99.90;;;;;;5108126;27;20051;-84
2022/05/19 07:13:53;;;;;;;26.83;17.98;;;19.20;99.90;;;;;;5082531;27;20130;-85
2022/05/19 07:16:18;;;;;;;28.05;17.90;;;19.00;99.90;;;;;;5090944;28;20032;-86
2022/05/19 07:18:44;;;;;;;24.98;17.60;;;19.00;99.90;;;;;;5074171;27;20051;-85
2022/05/19 07:21:10;;;;;;;29.58;17.65;;;19.00;99.90;;;;;;5088666;28;20043;-86
2022/05/19 07:23:36;;;;;;;26.05;18.65;;;19.00;99.90;;;;;;5076209;27;20092;-87
2022/05/19 07:26:02;;;;;;;23.02;18.08;;;19.00;99.90;;;;;;5079424;28;20097;-86
2022/05/19 07:28:28;;;;;;;25.10;17.73;;;19.00;99.90;;;;;;5074866;28;20035;-86
2022/05/19 07:30:53;;;;;;;29.20;19.38;;;19.00;99.90;;;;;;5090914;27;20092;-86
2022/05/19 07:33:19;;;;;;;28.85;19.52;;;19.00;99.90;;;;;;5092116;28;20428;-87
2022/05/19 07:35:46;;;;;;;28.33;18.50;;;19.10;99.90;;;;;;5061884;28;20174;-87
2022/05/19 07:38:14;;;;;;;32.13;20.83;;;19.00;99.90;;;;;;5065371;28;20115;-87
2022/05/19 07:40:41;;;;;;;25.45;18.90;;;19.00;99.90;;;;;;5081175;28;20063;-89
2022/05/19 07:45:51;;;;;;;27.15;20.67;;;19.00;99.90;;;;;;5077649;28;20040;-87
2022/05/19 07:48:17;;;;;;;30.73;21.95;;;18.90;99.90;;;;;;5069319;28;20036;-87
2022/05/19 07:50:43;;;;;;;34.03;22.13;;;18.80;99.90;;;;;;5061925;28;20525;-87
2022/05/19 07:53:09;;;;;;;31.63;21.77;;;18.80;99.90;;;;;;5067328;28;20063;-87
2022/05/19 07:55:35;;;;;;;31.95;18.85;;;18.80;99.90;;;;;;5062667;28;20040;-88
2022/05/19 07:58:01;;;;;;;29.02;17.10;;;18.80;99.90;;;;;;5060838;28;20469;-86
2022/05/19 08:00:27;;;;;;;34.85;18.48;;;18.80;99.90;;;;;;5061061;28;20101;-87
2022/05/19 08:02:53;;;;;;;31.67;14.73;;;18.70;99.90;;;;;;5059197;28;20071;-85
2022/05/19 08:05:18;;;;;;;28.27;14.20;;;18.80;99.90;;;;;;5062437;28;20034;-87
2022/05/19 08:07:44;;;;;;;22.77;13.25;;;18.80;99.90;;;;;;5061217;28;20127;-85
2022/05/19 08:10:25;;;;;;;27.98;13.65;;;18.90;99.90;;;;;;5079430;28;20043;-87
2022/05/19 08:15:43;;;;;;;18.10;9.60;;;18.90;99.90;;;;;;5079741;28;20040;-86
2022/05/19 08:18:16;;;;;;;22.65;11.00;;;19.00;99.90;;;;;;5062139;28;20050;-86
2022/05/19 08:20:45;;;;;;;27.13;11.38;;;19.10;99.90;;;;;;5099776;28;20092;-86
2022/05/19 08:23:16;;;;;;;19.25;11.00;;;19.20;99.90;;;;;;5081392;28;20093;-86
2022/05/19 08:25:43;;;;;;;25.20;8.65;;;19.30;99.90;;;;;;5081146;28;20047;-86
2022/05/19 08:28:09;;;;;;;19.45;7.32;;;19.30;99.90;;;;;;5058340;28;20036;-86
2022/05/19 08:30:35;;;;;;;14.90;6.43;;;19.40;99.90;;;;;;5063319;28;20031;-85
2022/05/19 08:33:05;;;;;;;17.02;6.93;;;19.40;99.90;;;;;;5078697;28;20048;-86
2022/05/19 08:35:31;;;;;;;14.73;6.68;;;19.40;99.90;;;;;;5068244;28;20119;-85
2022/05/19 08:37:56;;;;;;;16.98;5.63;;;19.40;99.90;;;;;;5069050;28;20127;-85
2022/05/19 08:40:22;;;;;;;15.65;7.47;;;19.40;99.90;;;;;;5052178;28;20895;-86
2022/05/19 08:42:56;;;;;;;13.57;6.38;;;19.40;99.90;;;;;;5069072;28;20072;-86
2022/05/19 08:45:31;;;;;;;21.05;6.95;;;19.40;99.90;;;;;;5052467;28;20051;-85
2022/05/19 08:48:04;;;;;;;13.63;5.53;;;19.40;99.90;;;;;;5068764;28;20048;-85
2022/05/19 08:50:37;;;;;;;17.25;6.50;;;19.50;99.90;;;;;;5069153;28;20036;-85
2022/05/19 08:53:06;;;;;;;;;;;19.50;99.90;;;;;;5051978;28;20364;-85
2022/05/19 08:55:33;;;;;;;18.63;7.25;;;19.70;99.90;;;;;;5052729;28;20079;-86
2022/05/19 08:58:02;;;;;;;17.27;5.72;;;19.70;99.90;;;;;;5051795;28;20559;-86
2022/05/19 09:00:37;;;;;;;11.93;5.35;;;19.90;99.90;;;;;;5068438;28;20047;-86
2022/05/19 09:03:13;;;;;;;12.45;5.47;;;20.00;99.90;;;;;;5067875;28;20117;-86
2022/05/19 09:05:59;;;;;;;14.23;5.45;;;20.20;99.90;;;;;;5052849;28;20052;-86
2022/05/19 09:08:25;;;;;;;10.75;4.85;;;20.40;99.90;;;;;;5050832;28;20094;-86
2022/05/19 09:11:05;;;;;;;10.13;4.32;;;20.60;99.90;;;;;;5069446;28;20547;-85
2022/05/19 09:13:51;;;;;;;10.65;4.53;;;20.70;99.90;;;;;;5050867;28;20635;-86
2022/05/19 09:16:22;;;;;;;15.02;5.10;;;20.90;99.90;;;;;;5071510;28;20134;-86
2022/05/19 09:19:04;;;;;;;12.27;4.82;;;21.10;99.90;;;;;;5056255;28;20048;-85
2022/05/19 09:21:29;;;;;;;11.77;4.90;;;21.20;99.90;;;;;;5073323;28;20055;-86
2022/05/19 09:23:55;;;;;;;10.13;4.78;;;21.40;99.90;;;;;;5056112;28;20044;-86
2022/05/19 09:26:30;;;;;;;12.05;4.35;;;21.50;99.90;;;;;;5072407;28;20057;-86
2022/05/19 09:29:01;;;;;;;8.55;4.28;;;21.50;99.90;;;;;;5054621;28;20403;-85
2022/05/19 09:31:41;;;;;;;10.65;4.22;;;21.60;99.90;;;;;;5072206;28;20046;-86
2022/05/19 09:34:08;;;;;;;10.77;4.50;;;21.70;99.90;;;;;;5055094;28;20043;-85
2022/05/19 09:36:41;;;;;;;8.95;4.07;;;21.90;99.90;;;;;;5084378;27;20047;-83
2022/05/19 09:39:14;;;;;;;11.95;4.18;;;22.00;99.90;;;;;;5079445;27;20086;-84
2022/05/19 09:41:42;;;;;;;;;;;22.20;99.90;;;;;;5101371;27;20764;-85
2022/05/19 09:44:14;;;;;;;13.18;4.32;;;22.30;99.90;;;;;;5087480;28;20401;-83
2022/05/19 09:46:43;;;;;;;11.52;4.32;;;22.30;99.90;;;;;;5101178;28;20054;-83
2022/05/19 09:49:27;;;;;;;12.82;5.07;;;22.30;99.90;;;;;;5123734;27;20115;-84
2022/05/19 09:51:59;;;;;;;9.57;4.50;;;22.40;99.90;;;;;;5086362;28;20076;-84
2022/05/19 09:54:25;;;;;;;9.73;3.63;;;22.60;99.90;;;;;;5080791;27;20083;-84
2022/05/19 09:56:53;;;;;;;7.45;3.50;;;22.70;99.90;;;;;;5088478;27;20070;-85
2022/05/19 09:59:32;;;;;;;10.70;3.40;;;22.80;99.90;;;;;;5089063;27;20075;-85
2022/05/19 10:02:15;;;;;;;9.13;3.60;;;22.90;99.90;;;;;;5088708;28;20075;-85
2022/05/19 10:04:49;;;;;;;8.02;4.10;;;23.00;99.90;;;;;;5090243;28;20040;-87
2022/05/19 10:07:23;;;;;;;11.13;5.13;;;23.10;99.90;;;;;;5101175;28;20131;-85
2022/05/19 10:09:52;;;;;;;12.68;4.50;;;23.20;99.90;;;;;;5076116;28;20044;-83
2022/05/19 10:12:24;;;;;;;11.48;5.43;;;23.20;99.90;;;;;;5066800;28;20047;-85
2022/05/19 10:14:58;;;;;;;12.05;4.88;;;23.20;99.90;;;;;;5086832;28;20054;-86
2022/05/19 10:17:45;;;;;;;8.07;4.70;;;23.30;99.90;;;;;;5064044;28;20063;-86
2022/05/19 10:20:18;;;;;;;10.65;4.90;;;23.50;99.90;;;;;;5054321;28;20052;-85
2022/05/19 10:23:08;;;;;;;8.85;4.63;;;23.70;99.90;;;;;;5056359;28;20117;-85
2022/05/19 10:25:52;;;;;;;10.30;5.30;;;23.90;99.90;;;;;;5051191;28;20048;-86
2022/05/19 10:31:38;;;;;;;9.82;5.50;;;24.40;99.90;;;;;;5091101;28;20048;-88
2022/05/19 10:34:20;;;;;;;11.85;5.03;;;24.60;99.90;;;;;;5073186;28;20139;-88
2022/05/19 10:36:47;;;;;;;9.80;5.20;;;24.80;99.90;;;;;;5073530;28;20036;-86
2022/05/19 10:39:38;;;;;;;10.35;4.68;;;24.90;99.90;;;;;;5071500;28;20052;-86
2022/05/19 10:42:18;;;;;;;15.00;4.57;;;24.80;99.90;;;;;;5068193;28;20085;-87
2022/05/19 10:45:00;;;;;;;9.77;4.55;;;25.00;99.90;;;;;;5068144;28;20102;-87
2022/05/19 10:47:38;;;;;;;11.38;4.70;;;25.10;99.90;;;;;;5051071;28;20040;-87
2022/05/19 10:50:29;;;;;;;9.20;4.00;;;25.30;99.90;;;;;;5076548;28;20055;-86
2022/05/19 10:52:55;;;;;;;8.25;4.30;;;25.60;99.90;;;;;;5085692;28;20044;-86
2022/05/19 10:55:27;;;;;;;10.90;4.60;;;25.80;99.90;;;;;;5071381;28;20067;-86
2022/05/19 10:58:14;;;;;;;11.93;4.47;;;25.80;99.90;;;;;;5070226;28;20051;-87
2022/05/19 11:00:57;;;;;;;8.05;4.70;;;25.70;99.90;;;;;;5066209;28;20056;-88
2022/05/19 11:03:23;;;;;;;9.80;4.80;;;25.60;99.90;;;;;;5070901;28;20055;-86
2022/05/19 11:06:08;;;;;;;10.48;5.10;;;25.40;99.90;;;;;;5055941;28;20477;-90
2022/05/19 11:08:52;;;;;;;10.30;5.05;;;25.30;99.90;;;;;;5072640;27;20043;-85
2022/05/19 11:11:22;;;;;;;15.02;5.05;;;25.20;99.90;;;;;;5100077;27;20051;-86
2022/05/19 11:13:57;;;;;;;10.73;4.55;;;25.30;99.90;;;;;;5098946;28;20044;-84
2022/05/19 11:16:55;;;;;;;11.43;4.78;;;25.50;99.90;;;;;;5092099;28;20403;-87
2022/05/19 11:19:32;;;;;;;11.98;4.65;;;25.60;99.90;;;;;;5072356;27;20188;-84
2022/05/19 11:22:05;;;;;;;12.63;4.75;;;25.80;99.90;;;;;;5101017;27;20035;-82
2022/05/19 11:26:23;;;;;;;7.70;4.32;;;25.90;99.90;;;;;;5102148;27;20397;-83
2022/05/19 11:27:26;;;;;;;7.47;4.43;;;25.80;99.90;;;;;;5113777;27;20443;-82
2022/05/19 11:29:59;;;;;;;11.05;4.28;;;25.70;99.90;;;;;;5095214;27;20413;-83
2022/05/19 11:32:31;;;;;;;9.43;5.93;;;25.70;99.90;;;;;;5062044;28;20120;-82
2022/05/19 11:35:18;;;;;;;9.90;6.70;;;25.60;99.90;;;;;;5092900;27;20055;-83
2022/05/19 11:37:55;;;;;;;10.65;7.63;;;25.50;99.90;;;;;;5084056;27;20051;-83
2022/05/19 11:40:38;;;;;;;13.82;8.15;;;25.50;99.90;;;;;;5100200;27;20591;-83
2022/05/19 11:43:06;;;;;;;;;;;25.50;99.90;;;;;;5090124;28;20075;-84
2022/05/19 11:45:45;;;;;;;12.95;7.07;;;25.40;99.90;;;;;;5098729;27;20648;-83
2022/05/19 11:57:29;;;;;;;11.90;8.07;;;25.50;99.90;;;;;;5097997;27;20043;-84
2022/05/19 11:59:58;;;;;;;13.00;9.20;;;25.60;99.90;;;;;;5096388;27;20126;-84
2022/05/19 12:02:30;;;;;;;18.60;10.02;;;25.70;99.90;;;;;;5104289;28;20081;-82
2022/05/19 12:05:10;;;;;;;12.87;9.93;;;25.70;99.90;;;;;;5116018;27;20410;-82
2022/05/19 12:07:45;;;;;;;15.15;9.93;;;25.70;99.90;;;;;;5097282;28;20039;-82
2022/05/19 12:10:18;;;;;;;16.27;11.07;;;25.70;99.90;;;;;;5096328;27;20493;-83
2022/05/19 12:12:50;;;;;;;15.23;11.15;;;25.70;99.90;;;;;;5079758;27;20073;-85
2022/05/19 12:15:19;;;;;;;17.10;11.18;;;25.60;99.90;;;;;;5100738;27;20368;-84
2022/05/19 12:17:56;;;;;;;18.20;11.68;;;25.40;99.90;;;;;;5106143;27;20047;-85
2022/05/19 12:20:33;;;;;;;18.00;11.88;;;25.30;99.90;;;;;;5073731;27;20050;-83
2022/05/19 12:23:15;;;;;;;15.05;10.18;;;25.30;99.90;;;;;;5094679;28;20094;-85
2022/05/19 12:25:46;;;;;;;18.88;12.07;;;25.20;99.90;;;;;;5095718;28;20118;-85
2022/05/19 12:28:13;;;;;;;17.77;11.80;;;25.10;99.90;;;;;;5077768;28;20048;-85
2022/05/19 12:33:36;;;;;;;12.48;9.52;;;24.90;99.90;;;;;;5096544;28;20043;-82
2022/05/19 12:36:09;;;;;;;12.30;9.00;;;24.80;99.90;;;;;;5089169;28;20487;-81
2022/05/19 12:38:38;;;;;;;13.07;8.30;;;24.70;99.90;;;;;;5079692;28;20074;-82
2022/05/19 12:41:10;;;;;;;12.68;10.10;;;24.60;99.90;;;;;;5101875;28;20547;-82
2022/05/19 12:43:43;;;;;;;16.97;10.50;;;24.60;99.90;;;;;;5083315;27;20463;-82
2022/05/19 12:46:13;;;;;;;16.02;11.18;;;24.40;99.90;;;;;;5105410;28;20039;-82
2022/05/19 12:48:39;;;;;;;20.33;11.15;;;24.30;99.90;;;;;;5079865;28;20401;-82
2022/05/19 12:51:08;;;;;;;16.80;11.52;;;24.20;99.90;;;;;;5098021;28;20051;-86
2022/05/19 12:53:42;;;;;;;13.43;9.10;;;24.10;99.90;;;;;;5101388;28;20054;-86
2022/05/19 12:56:09;;;;;;;11.90;7.78;;;24.00;99.90;;;;;;5095341;28;20148;-86
2022/05/19 12:58:45;;;;;;;10.48;7.20;;;23.80;99.90;;;;;;5082604;28;20043;-85
2022/05/19 13:01:21;;;;;;;16.63;7.45;;;23.60;99.90;;;;;;5080239;28;20428;-85
2022/05/19 13:04:00;;;;;;;15.82;7.53;;;23.50;99.90;;;;;;5082536;28;20126;-86
2022/05/19 13:06:27;;;;;;;18.60;9.02;;;23.30;99.90;;;;;;5096528;28;20550;-85
2022/05/19 13:08:54;;;;;;;17.15;8.07;;;23.20;99.90;;;;;;5095105;28;20048;-84